Airfield :
LOGIN :

Register | Disclaimer

   EN    FR    IT 

 










Legend :    VFR   Marginal VFR   IFR   Intensive IFR   Very Intensive IFR
Visi :
Ceiling :
>= 8 km
>= 3000ft
5 to 8 km
1000 to 3000 ft
1500m to 5 km
500 to 1000 ft
800 to 1500m
200 to 500 ft
< 800m
< 200 ft
Symbols :   Thunderstorms  Fog  Heavy snow  Heavy precipitations  Wind > 20 kt
SIGMETs :     Misc.  Thunderstorms  Icing  Turbulence  Mountain Waves  Volcanic Ashes






- Airport Elevation : 220 ft
- IATA code : CWL


EGFF - Cardiff Rhoose

CURRENT METAR :
  • 170650Z AUTO 05003KT 8000 BKN040 OVC049 05/05 Q1009

EXPIRED METARs :
  • 170620Z AUTO 02002KT 7000 SCT045 05/04 Q1009
  • 170550Z AUTO 09002KT 6000 SCT049 05/04 Q1009
  • 170520Z AUTO 05003KT 5000 BR BKN048 05/05 Q1009
  • 170450Z AUTO 06004KT 7000 NCD 05/05 Q1009
  • 170420Z AUTO VRB02KT 7000 FEW009 SCT035 05/05 Q1009

TAF AMD TAF EGFF
Valid from the 17 at 06:00 until the 18 at 06:00 UTC


170559Z 1706/1806 VRB03KT 4000 BR SCT030
BECMG 1706/1710 9999 NSW
PROB30
TEMPO 1706/1710 BKN009
TEMPO 1712/1718 8000 -RADZ BKN014
PROB30
TEMPO 1718/1724 BKN014
BECMG 1721/1724 36010KT
ATIS : +44 1446 729 319



MET'MAP, your aeronautical weather chart ! - Copyright ORBIFLY December 2007 - Disclaimer

ORBIFLY MET'MAP TEAM :

Programming & Development : Alexandra Zaïnal
Concept & Development : Baudouin d'Aumeries
Co-Development & Prog : Marc-Olivier Méhu
Technical & hardware support : Manuel Goepfert

Contact : metmap@orbifly.com




SOURCES & CREDITS :

   NOAA